AirNav   Air Wisconsin Up To $57,000 Bonus
 
 931 users online  

TA35 Rancho Hielo Brazos Airport
Glen Rose, Texas, USA

GOING TO GLEN ROSE?


FAA INFORMATION EFFECTIVE 17 JUNE 2021

Location

FAA Identifier: TA35
Lat/Long: 32-12-01.7460N 097-50-32.4710W
32-12.029100N 097-50.541183W
32.2004850,-97.8423531
(estimated)
Elevation: 920 ft. / 280 m (estimated)
Variation: 03E (2020)
From city: 4 miles SW of GLEN ROSE, TX
Time zone: UTC -5 (UTC -6 during Standard Time)
Zip code: 76043

Airport Operations

Airport use: Private use. Permission required prior to landing
Activation date: 02/2014
Control tower: no
ARTCC: FORT WORTH CENTER
FSS: FORT WORTH FLIGHT SERVICE STATION
Attendance: UNATNDD
Segmented circle: no

Airport Communications

WX AWOS-3 at GDJ (15 nm N): 118.925 (817-573-7514)
WX AWOS-3 at SEP (17 nm W): 118.075 (254-965-8672)

Nearby radio navigation aids

VOR radial/distance  VOR name  Freq  Var
MQPr157/32.5MILLSAP VORTAC117.7009E

Airport Services

Runway Information

Runway 18/36

Dimensions: 3506 x 23 ft. / 1069 x 7 m
Surface: asphalt
RUNWAY 18  RUNWAY 36
Latitude: 32-12.316500N32-11.741700N
Longitude: 097-50.502300W097-50.580067W
Elevation: 913.0 ft.920.0 ft.
Traffic pattern: leftleft
Touchdown point: yes, no lightsyes, no lights

Airport Ownership and Management from official FAA records

Ownership: Privately-owned
Owner: WHITE BLUFF HOLDINGS, LLC
210 CEDAR SPRINGS RD, SUITE 1800
DALLAS, TX 75201-1585
Phone 214-231-6800
MWISENBAKER@PEREGRINEGP.COM.
Manager: RHETT H. JOHNSON
8504 AUBURN CT
GRANBURY, TX 76049
Phone 817-279-2384
R_JOHNSON2004@CHARTER.NET.

Additional Remarks

FOR CD CTC FORT WORTH ARTCC AT 817-858-7584.

Instrument Procedures

There are no published instrument procedures at TA35.

Some nearby airports with instrument procedures:

KGDJ - Granbury Regional Airport (15 nm N)
KSEP - Stephenville Clark Regional Airport (17 nm W)
KCPT - Cleburne Regional Airport (23 nm NE)
50F - Bourland Field Airport (26 nm NE)
KWEA - Parker County Airport (34 nm N)
 
Loc | Ops | Rwys | IFR | FBO | Links
Com | Nav | Svcs | Stats | Notes

City of Fort Worth
 
Aerial photo
No photo
 
Airport distance calculator
Flying to Rancho Hielo Brazos Airport? Find the distance to fly.

From to TA35

Sunrise and sunset
Times for 17-Jun-2021
 Local
(UTC-5)
 Zulu
(UTC)
Morning civil twilight05:5710:57
Sunrise06:2611:26
Sunset20:3901:39
Evening civil twilight21:0702:07

Current date and time
Zulu (UTC)  18-Jun-2021 03:39:26
Local (UTC-5)  17-Jun-2021 22:39:26
 
METAR
KGDJ 
15nm N 
AWOS-3 118.925 817-573-7514
180235Z AUTO 15004KT 10SM CLR 31/19 A2998 RMK AO2 T03100190
KSEP 
16nm W 
180235Z AUTO 12004KT 10SM SCT110 28/18 A3002 RMK AO2 T02800178
KCPT 
23nm NE 
180235Z AUTO 15007KT 10SM CLR 30/21 A2998 RMK A01
TAF
KNFW 
39nm NE 
1723/1823 VRB06KT 9999 SCT050 QNH2989INS AUTOMATED SENSOR METWATCH 1804 TIL 1811 T36/1723Z T25/1813Z FN20070
KFTW 
45nm NE 
172106Z 1721/1818 21005KT P6SM FEW050 SCT300 FM181700 13007KT P6SM SCT090 SCT200
KACT 
47nm SE 
172106Z 1721/1818 20006KT P6SM FEW300 FM180700 15005KT P6SM SCT090 SCT300
KGKY 
47nm NE 
172106Z 1721/1818 20005KT P6SM FEW050 SCT300 FM181700 13007KT P6SM SCT090 SCT200
NOTAMs
Click for the latest NOTAMs
NOTAMs are issued by the DoD/FAA and will open in a separate window not controlled by AirNav.

 

 
 

Would you like to see your business listed on this page?

 If your business provides an interesting product or service to pilots, flight crews, aircraft, or users of the Rancho Hielo Brazos Airport, you should consider listing it here.  To start the listing process, click on the button below
 
Add a business
 

Other Pages about Rancho Hielo Brazos Airport

Update a link
 
Copyright © AirNav, LLC. All rights reserved. Privacy Policy  Contact